Time,TemperatureF,DewpointF,PressureIn,WindDirection,WindDirectionDegrees,WindSpeedMPH,WindSpeedGustMPH,Humidity,HourlyPrecipIn,Conditions,Clouds,dailyrainin,SoftwareType,DateUTC
2013-01-07 00:02:00,45.0,40.0,30.03,SSE,164,0.0,0.0,84,0.03,,,0.09,,2013-01-07 08:02:00,
2013-01-07 00:11:00,45.0,40.0,30.03,SSE,164,0.0,0.0,84,0.03,,,0.09,,2013-01-07 08:11:00,
2013-01-07 00:22:00,44.0,40.0,30.02,SSE,153,0.0,0.0,85,0.03,,,0.10,,2013-01-07 08:22:00,
2013-01-07 00:32:00,44.0,40.0,30.02,South,189,0.0,0.0,85,0.03,,,0.11,,2013-01-07 08:32:00,
2013-01-07 00:42:00,44.0,40.0,30.02,South,189,0.0,0.0,85,0.03,,,0.11,,2013-01-07 08:42:00,
2013-01-07 00:52:00,44.0,40.0,30.02,South,181,0.0,0.0,85,0.02,,,0.11,,2013-01-07 08:52:00,
2013-01-07 01:02:00,44.0,40.0,30.02,SSW,213,0.0,0.0,85,0.02,,,0.11,,2013-01-07 09:02:00,
2013-01-07 01:12:00,44.0,40.0,30.02,SSW,213,0.0,0.0,85,0.02,,,0.11,,2013-01-07 09:12:00,
2013-01-07 01:22:00,44.0,40.0,30.02,SSE,167,0.0,0.0,86,0.04,,,0.13,,2013-01-07 09:22:00,
2013-01-07 01:32:00,44.0,40.0,30.02,SSW,200,0.0,0.0,86,0.04,,,0.14,,2013-01-07 09:32:00,
2013-01-07 01:42:00,44.0,40.0,30.02,SSW,200,0.0,0.0,86,0.04,,,0.14,,2013-01-07 09:42:00,
2013-01-07 01:52:00,44.0,40.0,30.01,SSE,162,0.0,0.0,87,0.05,,,0.15,,2013-01-07 09:52:00,
2013-01-07 02:02:00,44.0,40.0,30.01,SSW,207,0.0,0.0,87,0.05,,,0.15,,2013-01-07 10:02:00,
2013-01-07 02:11:00,44.0,40.0,30.01,SSW,207,0.0,0.0,87,0.05,,,0.15,,2013-01-07 10:11:00,
2013-01-07 02:22:00,44.0,40.0,30.02,SSE,152,0.0,0.0,87,0.02,,,0.15,,2013-01-07 10:22:00,
2013-01-07 02:32:00,44.0,40.0,30.02,South,181,0.0,0.0,87,0.01,,,0.15,,2013-01-07 10:32:00,
2013-01-07 02:42:00,44.0,40.0,30.02,South,181,0.0,0.0,87,0.01,,,0.15,,2013-01-07 10:42:00,
2013-01-07 02:52:00,45.0,41.0,30.02,SSW,205,0.0,0.0,87,0.00,,,0.15,,2013-01-07 10:52:00,
2013-01-07 03:02:00,45.0,41.0,30.02,South,186,0.0,0.0,86,0.00,,,0.15,,2013-01-07 11:02:00,
2013-01-07 03:12:00,45.0,41.0,30.02,South,186,0.0,0.0,86,0.00,,,0.15,,2013-01-07 11:12:00,
2013-01-07 03:22:00,45.0,41.0,30.01,SE,135,0.0,0.0,86,0.00,,,0.15,,2013-01-07 11:22:00,
2013-01-07 03:32:00,45.0,41.0,30.01,South,181,0.0,0.0,86,0.00,,,0.15,,2013-01-07 11:32:00,
2013-01-07 03:42:00,45.0,41.0,30.01,South,181,0.0,0.0,86,0.00,,,0.15,,2013-01-07 11:42:00,
2013-01-07 03:53:00,46.0,42.0,30.01,SSW,200,0.0,0.0,85,0.00,,,0.15,,2013-01-07 11:53:00,
2013-01-07 04:02:00,46.0,42.0,30.01,SSW,208,0.0,0.0,85,0.00,,,0.15,,2013-01-07 12:02:00,
2013-01-07 04:12:00,46.0,42.0,29.99,SW,233,0.0,0.0,85,0.00,,,0.15,,2013-01-07 12:12:00,
2013-01-07 04:22:00,46.0,42.0,29.99,SW,233,0.0,0.0,85,0.00,,,0.15,,2013-01-07 12:22:00,
2013-01-07 04:32:00,46.0,42.0,29.99,South,185,0.0,0.0,86,0.01,,,0.16,,2013-01-07 12:32:00,
2013-01-07 04:42:00,46.0,42.0,29.99,South,185,0.0,0.0,86,0.01,,,0.16,,2013-01-07 12:42:00,
2013-01-07 04:53:00,46.0,42.0,30.01,South,181,0.0,0.0,87,0.01,,,0.16,,2013-01-07 12:53:00,
2013-01-07 05:02:00,46.0,42.0,30.01,SSE,155,0.0,0.0,87,0.01,,,0.16,,2013-01-07 13:02:00,
2013-01-07 05:12:00,46.0,42.0,30.01,SSE,155,0.0,0.0,87,0.01,,,0.16,,2013-01-07 13:12:00,
2013-01-07 05:22:00,46.0,42.0,29.99,SSE,150,0.0,0.0,87,0.01,,,0.16,,2013-01-07 13:22:00,
2013-01-07 05:32:00,47.0,43.0,29.99,SSW,205,0.0,0.0,86,0.00,,,0.16,,2013-01-07 13:32:00,
2013-01-07 05:42:00,47.0,43.0,29.99,SSW,205,0.0,0.0,86,0.00,,,0.16,,2013-01-07 13:42:00,
2013-01-07 05:53:00,47.0,43.0,29.98,South,180,0.0,0.0,86,0.00,,,0.16,,2013-01-07 13:53:00,
2013-01-07 06:02:00,47.0,43.0,29.98,SSE,165,0.0,0.0,86,0.00,,,0.16,,2013-01-07 14:02:00,
2013-01-07 06:12:00,47.0,43.0,29.98,SSE,165,0.0,0.0,86,0.00,,,0.16,,2013-01-07 14:12:00,
2013-01-07 06:22:00,47.0,43.0,29.98,SSW,202,0.0,0.0,86,0.00,,,0.16,,2013-01-07 14:22:00,
2013-01-07 06:32:00,47.0,43.0,29.98,SW,221,0.0,0.0,86,0.00,,,0.16,,2013-01-07 14:32:00,
2013-01-07 06:42:00,47.0,43.0,29.98,SW,221,0.0,0.0,86,0.00,,,0.16,,2013-01-07 14:42:00,
2013-01-07 06:53:00,47.0,43.0,30.01,South,187,0.0,0.0,86,0.01,,,0.16,,2013-01-07 14:53:00,
2013-01-07 07:02:00,47.0,43.0,30.01,South,173,0.0,0.0,87,0.01,,,0.15,,2013-01-07 15:02:00,
2013-01-07 07:12:00,47.0,43.0,30.01,South,173,0.0,0.0,87,0.01,,,0.15,,2013-01-07 15:12:00,
2013-01-07 07:22:00,47.0,44.0,29.99,South,179,0.0,0.0,89,0.01,,,0.15,,2013-01-07 15:22:00,
2013-01-07 07:33:00,47.0,44.0,29.99,South,180,0.0,0.0,89,0.01,,,0.15,,2013-01-07 15:33:00,
2013-01-07 07:42:00,47.0,44.0,29.99,South,180,0.0,0.0,89,0.01,,,0.15,,2013-01-07 15:42:00,
2013-01-07 07:53:00,47.0,44.0,29.99,SSE,161,0.0,0.0,89,0.01,,,0.16,,2013-01-07 15:53:00,
2013-01-07 08:02:00,47.0,44.0,29.99,South,184,0.0,0.0,89,0.01,,,0.16,,2013-01-07 16:02:00,
2013-01-07 08:12:00,47.0,44.0,29.99,South,184,0.0,0.0,89,0.01,,,0.16,,2013-01-07 16:12:00,
2013-01-07 08:22:00,47.0,44.0,30.01,SSW,198,0.0,0.0,89,0.02,,,0.17,,2013-01-07 16:22:00,
2013-01-07 08:32:00,47.0,44.0,30.01,SW,215,0.0,0.0,89,0.02,,,0.17,,2013-01-07 16:32:00,
2013-01-07 08:42:00,47.0,44.0,30.01,SW,215,0.0,0.0,89,0.02,,,0.17,,2013-01-07 16:42:00,
2013-01-07 08:53:00,47.0,44.0,30.02,South,190,0.0,0.0,89,0.01,,,0.17,,2013-01-07 16:53:00,
2013-01-07 09:02:00,48.0,45.0,30.02,SSW,207,0.0,0.0,89,0.01,,,0.17,,2013-01-07 17:02:00,
2013-01-07 09:12:00,48.0,45.0,30.02,SSW,207,0.0,0.0,89,0.01,,,0.17,,2013-01-07 17:12:00,
2013-01-07 09:22:00,48.0,45.0,30.03,South,176,0.0,0.0,88,0.00,,,0.17,,2013-01-07 17:22:00,
2013-01-07 09:32:00,48.0,45.0,30.03,SSE,154,0.0,0.0,88,0.00,,,0.17,,2013-01-07 17:32:00,
2013-01-07 09:42:00,48.0,45.0,30.03,SSE,154,0.0,0.0,88,0.00,,,0.17,,2013-01-07 17:42:00,
2013-01-07 09:53:00,48.0,45.0,30.05,SSW,210,0.0,0.0,88,0.00,,,0.17,,2013-01-07 17:53:00,
2013-01-07 10:02:00,48.0,45.0,30.05,SSW,212,0.0,0.0,89,0.00,,,0.17,,2013-01-07 18:02:00,
2013-01-07 10:12:00,48.0,45.0,30.05,SSW,212,0.0,0.0,89,0.00,,,0.17,,2013-01-07 18:12:00,
2013-01-07 10:23:00,48.0,45.0,30.06,SSW,195,0.0,0.0,89,0.01,,,0.18,,2013-01-07 18:23:00,
2013-01-07 10:32:00,48.0,45.0,30.06,South,183,0.0,0.0,90,0.01,,,0.18,,2013-01-07 18:32:00,
2013-01-07 10:42:00,48.0,45.0,30.06,South,183,0.0,0.0,90,0.01,,,0.18,,2013-01-07 18:42:00,
2013-01-07 10:53:00,49.0,46.0,30.07,SSE,160,0.0,0.0,90,0.01,,,0.18,,2013-01-07 18:53:00,
2013-01-07 11:02:00,49.0,46.0,30.07,South,187,0.0,0.0,90,0.01,,,0.18,,2013-01-07 19:02:00,
2013-01-07 11:12:00,49.0,46.0,30.07,South,187,0.0,0.0,90,0.01,,,0.18,,2013-01-07 19:12:00,
2013-01-07 11:22:00,49.0,46.0,30.07,SSW,196,0.0,0.0,90,0.00,,,0.18,,2013-01-07 19:22:00,
2013-01-07 11:32:00,49.0,46.0,30.07,SSE,158,0.0,0.0,90,0.00,,,0.18,,2013-01-07 19:32:00,
2013-01-07 11:42:00,49.0,46.0,30.07,SSE,158,0.0,0.0,90,0.00,,,0.18,,2013-01-07 19:42:00,
2013-01-07 11:53:00,49.0,46.0,30.07,SSW,197,0.0,0.0,90,0.00,,,0.18,,2013-01-07 19:53:00,
2013-01-07 12:02:00,49.0,46.0,30.07,SSW,201,0.0,0.0,90,0.01,,,0.19,,2013-01-07 20:02:00,
2013-01-07 12:12:00,49.0,46.0,30.07,SSW,201,0.0,0.0,90,0.01,,,0.19,,2013-01-07 20:12:00,
2013-01-07 12:22:00,49.0,46.0,30.07,South,186,0.0,0.0,90,0.01,,,0.19,,2013-01-07 20:22:00,
2013-01-07 12:32:00,50.0,47.0,30.07,SSW,201,0.0,0.0,90,0.01,,,0.19,,2013-01-07 20:32:00,
2013-01-07 12:42:00,50.0,47.0,30.07,SSW,201,0.0,0.0,90,0.01,,,0.19,,2013-01-07 20:42:00,
2013-01-07 12:53:00,50.0,47.0,30.08,SSW,212,0.0,0.0,90,0.01,,,0.19,,2013-01-07 20:53:00,
2013-01-07 13:02:00,50.0,47.0,30.08,South,188,0.0,0.0,89,0.00,,,0.19,,2013-01-07 21:02:00,
2013-01-07 13:12:00,50.0,47.0,30.08,South,188,0.0,0.0,89,0.00,,,0.19,,2013-01-07 21:12:00,
2013-01-07 13:22:00,51.0,48.0,30.07,SW,220,0.0,0.0,88,0.00,,,0.19,,2013-01-07 21:22:00,
2013-01-07 13:32:00,51.0,48.0,30.07,SSW,213,0.0,0.0,88,0.00,,,0.19,,2013-01-07 21:32:00,
2013-01-07 13:42:00,51.0,48.0,30.07,SSW,213,0.0,0.0,88,0.00,,,0.19,,2013-01-07 21:42:00,
2013-01-07 13:53:00,51.0,48.0,30.07,SSW,193,0.0,0.0,88,0.00,,,0.19,,2013-01-07 21:53:00,
2013-01-07 14:02:00,51.0,48.0,30.07,SW,223,0.0,0.0,88,0.00,,,0.19,,2013-01-07 22:02:00,
2013-01-07 14:12:00,51.0,48.0,30.07,SW,223,0.0,0.0,88,0.00,,,0.19,,2013-01-07 22:12:00,
2013-01-07 14:22:00,51.0,48.0,30.09,SSW,213,0.0,0.0,89,0.00,,,0.19,,2013-01-07 22:22:00,
2013-01-07 14:33:00,51.0,48.0,30.09,SW,231,0.0,0.0,89,0.00,,,0.19,,2013-01-07 22:33:00,
2013-01-07 14:42:00,51.0,48.0,30.09,SW,231,0.0,0.0,89,0.00,,,0.19,,2013-01-07 22:42:00,
2013-01-07 14:53:00,51.0,48.0,30.10,SSW,203,0.0,0.0,89,0.00,,,0.19,,2013-01-07 22:53:00,
2013-01-07 15:02:00,51.0,48.0,30.10,WSW,237,0.0,0.0,89,0.00,,,0.19,,2013-01-07 23:02:00,
2013-01-07 15:12:00,51.0,48.0,30.10,WSW,237,0.0,0.0,89,0.00,,,0.19,,2013-01-07 23:12:00,
2013-01-07 15:22:00,51.0,48.0,30.11,SW,230,0.0,0.0,88,0.00,,,0.19,,2013-01-07 23:22:00,
2013-01-07 15:32:00,51.0,48.0,30.11,SW,227,0.0,0.0,88,0.00,,,0.19,,2013-01-07 23:32:00,
2013-01-07 15:42:00,51.0,48.0,30.11,SW,227,0.0,0.0,88,0.00,,,0.19,,2013-01-07 23:42:00,
2013-01-07 15:53:00,51.0,48.0,30.10,SSW,209,0.0,0.0,88,0.00,,,0.19,,2013-01-07 23:53:00,
2013-01-07 16:02:00,51.0,47.0,30.10,SW,220,0.0,0.0,87,0.00,,,0.19,,2013-01-08 00:02:00,
2013-01-07 16:12:00,51.0,47.0,30.10,SW,220,0.0,0.0,87,0.00,,,0.19,,2013-01-08 00:12:00,
2013-01-07 16:22:00,51.0,48.0,30.11,WSW,244,0.0,0.0,88,0.00,,,0.19,,2013-01-08 00:22:00,
2013-01-07 16:32:00,51.0,48.0,30.11,WSW,251,0.0,0.0,88,0.00,,,0.19,,2013-01-08 00:32:00,
2013-01-07 16:42:00,51.0,48.0,30.11,WSW,251,0.0,0.0,88,0.00,,,0.19,,2013-01-08 00:42:00,
2013-01-07 16:52:00,51.0,48.0,30.10,SSW,210,0.0,0.0,88,0.00,,,0.19,,2013-01-08 00:52:00,
2013-01-07 17:02:00,51.0,48.0,30.10,SSW,205,0.0,0.0,88,0.00,,,0.19,,2013-01-08 01:02:00,
2013-01-07 17:11:00,51.0,48.0,30.10,SSW,205,0.0,0.0,88,0.00,,,0.19,,2013-01-08 01:11:00,
2013-01-07 17:22:00,51.0,47.0,30.12,SSW,203,0.0,0.0,87,0.00,,,0.19,,2013-01-08 01:22:00,
2013-01-07 17:32:00,51.0,47.0,30.12,SW,233,0.0,0.0,87,0.00,,,0.19,,2013-01-08 01:32:00,
2013-01-07 17:42:00,51.0,47.0,30.12,SW,233,0.0,0.0,87,0.00,,,0.19,,2013-01-08 01:42:00,
2013-01-07 17:52:00,50.0,46.0,30.11,SW,217,0.0,0.0,87,0.00,,,0.19,,2013-01-08 01:52:00,
2013-01-07 18:02:00,50.0,46.0,30.11,SW,224,0.0,0.0,87,0.00,,,0.19,,2013-01-08 02:02:00,
2013-01-07 18:12:00,50.0,46.0,30.11,SW,224,0.0,0.0,87,0.00,,,0.19,,2013-01-08 02:12:00,
2013-01-07 18:22:00,50.0,46.0,30.13,WSW,240,0.0,0.0,87,0.00,,,0.19,,2013-01-08 02:22:00,
2013-01-07 18:32:00,50.0,46.0,30.13,SW,221,0.0,0.0,87,0.00,,,0.19,,2013-01-08 02:32:00,
2013-01-07 18:42:00,50.0,46.0,30.13,SW,221,0.0,0.0,87,0.00,,,0.19,,2013-01-08 02:42:00,
2013-01-07 18:53:00,50.0,46.0,30.13,SW,233,0.0,0.0,87,0.00,,,0.19,,2013-01-08 02:53:00,
2013-01-07 19:02:00,50.0,46.0,30.13,WSW,238,0.0,0.0,87,0.00,,,0.19,,2013-01-08 03:02:00,
2013-01-07 19:12:00,50.0,46.0,30.13,WSW,238,0.0,0.0,87,0.00,,,0.19,,2013-01-08 03:12:00,
2013-01-07 19:22:00,49.0,45.0,30.15,SW,214,0.0,0.0,87,0.00,,,0.19,,2013-01-08 03:22:00,
2013-01-07 19:32:00,49.0,45.0,30.15,West,271,0.0,0.0,87,0.00,,,0.19,,2013-01-08 03:32:00,
2013-01-07 19:42:00,49.0,45.0,30.15,West,271,0.0,0.0,87,0.00,,,0.19,,2013-01-08 03:42:00,
2013-01-07 19:53:00,49.0,45.0,30.15,SW,233,0.0,0.0,87,0.00,,,0.19,,2013-01-08 03:53:00,
2013-01-07 20:02:00,49.0,45.0,30.15,SSW,211,0.0,0.0,87,0.00,,,0.19,,2013-01-08 04:02:00,
2013-01-07 20:11:00,49.0,45.0,30.15,SSW,211,0.0,0.0,87,0.00,,,0.19,,2013-01-08 04:11:00,
2013-01-07 20:22:00,49.0,45.0,30.14,SSW,203,0.0,0.0,87,0.00,,,0.19,,2013-01-08 04:22:00,
2013-01-07 20:32:00,49.0,45.0,30.14,South,188,0.0,0.0,87,0.00,,,0.19,,2013-01-08 04:32:00,
2013-01-07 20:42:00,49.0,45.0,30.14,South,188,0.0,0.0,87,0.00,,,0.19,,2013-01-08 04:42:00,
2013-01-07 20:52:00,49.0,45.0,30.13,South,173,0.0,0.0,87,0.00,,,0.19,,2013-01-08 04:52:00,
2013-01-07 21:03:00,48.0,44.0,30.13,ESE,110,0.0,0.0,87,0.00,,,0.19,,2013-01-08 05:03:00,
2013-01-07 21:12:00,48.0,44.0,30.13,ESE,110,0.0,0.0,87,0.00,,,0.19,,2013-01-08 05:12:00,
2013-01-07 21:22:00,48.0,44.0,30.15,ESE,109,0.0,0.0,87,0.00,,,0.19,,2013-01-08 05:22:00,
2013-01-07 21:32:00,48.0,44.0,30.15,ESE,110,0.0,0.0,87,0.00,,,0.19,,2013-01-08 05:32:00,
2013-01-07 21:42:00,48.0,44.0,30.15,ESE,110,0.0,0.0,87,0.00,,,0.19,,2013-01-08 05:42:00,
2013-01-07 21:53:00,48.0,45.0,30.15,South,171,0.0,0.0,88,0.00,,,0.19,,2013-01-08 05:53:00,
2013-01-07 22:02:00,48.0,45.0,30.15,South,171,0.0,0.0,88,0.00,,,0.18,,2013-01-08 06:02:00,
2013-01-07 22:11:00,48.0,45.0,30.15,South,171,0.0,0.0,88,0.00,,,0.18,,2013-01-08 06:11:00,
2013-01-07 22:22:00,48.0,45.0,30.14,South,171,0.0,0.0,88,0.00,,,0.18,,2013-01-08 06:22:00,
2013-01-07 22:32:00,48.0,45.0,30.14,South,171,0.0,0.0,89,0.00,,,0.18,,2013-01-08 06:32:00,
2013-01-07 22:42:00,48.0,45.0,30.14,South,171,0.0,0.0,89,0.00,,,0.18,,2013-01-08 06:42:00,
2013-01-07 22:52:00,48.0,45.0,30.15,South,171,0.0,0.0,89,0.00,,,0.17,,2013-01-08 06:52:00,
2013-01-07 23:02:00,48.0,45.0,30.15,South,171,0.0,0.0,89,0.00,,,0.16,,2013-01-08 07:02:00,
2013-01-07 23:11:00,48.0,45.0,30.15,South,171,0.0,0.0,89,0.00,,,0.16,,2013-01-08 07:11:00,
2013-01-07 23:22:00,47.0,44.0,30.14,South,171,0.0,0.0,89,0.00,,,0.15,,2013-01-08 07:22:00,
2013-01-07 23:32:00,47.0,44.0,30.14,South,171,0.0,0.0,89,0.00,,,0.14,,2013-01-08 07:32:00,
2013-01-07 23:42:00,47.0,44.0,30.14,South,171,0.0,0.0,89,0.00,,,0.14,,2013-01-08 07:42:00,
2013-01-07 23:52:00,47.0,44.0,30.15,South,179,0.0,0.0,90,0.00,,,0.13,,2013-01-08 07:52:00,